sensor_id;sensor_type;location;lat;lon;timestamp;P1;durP1;ratioP1;P2;durP2;ratioP2
28629;SDS011;15817;42.130;24.762;2023-10-31T00:01:50;12.23;;;5.40;;
28629;SDS011;15817;42.130;24.762;2023-10-31T00:04:26;14.50;;;5.22;;
28629;SDS011;15817;42.130;24.762;2023-10-31T00:07:11;12.55;;;5.53;;
28629;SDS011;15817;42.130;24.762;2023-10-31T00:09:40;10.68;;;4.68;;
28629;SDS011;15817;42.130;24.762;2023-10-31T00:12:14;10.90;;;4.68;;
28629;SDS011;15817;42.130;24.762;2023-10-31T00:14:40;10.73;;;5.25;;
28629;SDS011;15817;42.130;24.762;2023-10-31T00:17:06;18.10;;;4.95;;
28629;SDS011;15817;42.130;24.762;2023-10-31T00:19:52;11.25;;;5.43;;
28629;SDS011;15817;42.130;24.762;2023-10-31T00:22:32;7.63;;;4.65;;
28629;SDS011;15817;42.130;24.762;2023-10-31T00:25:07;12.35;;;5.40;;
28629;SDS011;15817;42.130;24.762;2023-10-31T00:27:38;9.43;;;5.47;;
28629;SDS011;15817;42.130;24.762;2023-10-31T00:30:12;8.85;;;5.05;;
28629;SDS011;15817;42.130;24.762;2023-10-31T00:33:07;8.80;;;4.65;;
28629;SDS011;15817;42.130;24.762;2023-10-31T00:35:43;9.85;;;5.03;;
28629;SDS011;15817;42.130;24.762;2023-10-31T00:38:12;10.23;;;4.60;;
28629;SDS011;15817;42.130;24.762;2023-10-31T00:40:44;13.13;;;5.10;;
28629;SDS011;15817;42.130;24.762;2023-10-31T00:43:15;9.00;;;4.60;;
28629;SDS011;15817;42.130;24.762;2023-10-31T00:45:41;11.02;;;4.78;;
28629;SDS011;15817;42.130;24.762;2023-10-31T00:48:10;11.18;;;5.40;;
28629;SDS011;15817;42.130;24.762;2023-10-31T00:50:49;17.05;;;4.97;;
28629;SDS011;15817;42.130;24.762;2023-10-31T00:53:23;9.05;;;4.72;;
28629;SDS011;15817;42.130;24.762;2023-10-31T00:59:08;9.35;;;5.05;;
28629;SDS011;15817;42.130;24.762;2023-10-31T01:01:43;9.85;;;4.55;;
28629;SDS011;15817;42.130;24.762;2023-10-31T01:04:20;12.70;;;4.65;;
28629;SDS011;15817;42.130;24.762;2023-10-31T01:07:03;9.98;;;5.15;;
28629;SDS011;15817;42.130;24.762;2023-10-31T01:12:53;11.00;;;5.00;;
28629;SDS011;15817;42.130;24.762;2023-10-31T01:15:19;11.30;;;4.40;;
28629;SDS011;15817;42.130;24.762;2023-10-31T01:17:58;7.63;;;4.25;;
28629;SDS011;15817;42.130;24.762;2023-10-31T01:20:24;9.93;;;4.70;;
28629;SDS011;15817;42.130;24.762;2023-10-31T01:23:04;7.90;;;4.82;;
28629;SDS011;15817;42.130;24.762;2023-10-31T01:25:30;7.60;;;4.57;;
28629;SDS011;15817;42.130;24.762;2023-10-31T01:27:59;10.82;;;5.03;;
28629;SDS011;15817;42.130;24.762;2023-10-31T01:30:28;8.82;;;4.97;;
28629;SDS011;15817;42.130;24.762;2023-10-31T01:32:59;9.77;;;4.80;;
28629;SDS011;15817;42.130;24.762;2023-10-31T01:35:37;8.48;;;5.00;;
28629;SDS011;15817;42.130;24.762;2023-10-31T01:38:06;9.80;;;4.85;;
28629;SDS011;15817;42.130;24.762;2023-10-31T01:40:39;6.45;;;4.13;;
28629;SDS011;15817;42.130;24.762;2023-10-31T01:43:34;12.82;;;5.47;;
28629;SDS011;15817;42.130;24.762;2023-10-31T01:46:01;9.50;;;4.95;;
28629;SDS011;15817;42.130;24.762;2023-10-31T01:48:28;11.27;;;5.30;;
28629;SDS011;15817;42.130;24.762;2023-10-31T01:51:01;12.00;;;4.72;;
28629;SDS011;15817;42.130;24.762;2023-10-31T01:53:31;11.25;;;4.38;;
28629;SDS011;15817;42.130;24.762;2023-10-31T01:56:15;10.40;;;5.32;;
28629;SDS011;15817;42.130;24.762;2023-10-31T01:58:44;11.63;;;5.13;;
28629;SDS011;15817;42.130;24.762;2023-10-31T02:01:11;13.20;;;5.85;;
28629;SDS011;15817;42.130;24.762;2023-10-31T02:03:43;12.75;;;5.18;;
28629;SDS011;15817;42.130;24.762;2023-10-31T02:06:14;11.90;;;5.40;;
28629;SDS011;15817;42.130;24.762;2023-10-31T02:08:50;7.30;;;4.88;;
28629;SDS011;15817;42.130;24.762;2023-10-31T02:11:18;17.23;;;5.32;;
28629;SDS011;15817;42.130;24.762;2023-10-31T02:13:57;11.63;;;5.68;;
28629;SDS011;15817;42.130;24.762;2023-10-31T02:16:30;10.10;;;5.07;;
28629;SDS011;15817;42.130;24.762;2023-10-31T02:19:10;13.50;;;5.40;;
28629;SDS011;15817;42.130;24.762;2023-10-31T02:21:38;9.30;;;5.60;;
28629;SDS011;15817;42.130;24.762;2023-10-31T02:24:10;11.13;;;5.20;;
28629;SDS011;15817;42.130;24.762;2023-10-31T02:26:37;16.50;;;5.40;;
28629;SDS011;15817;42.130;24.762;2023-10-31T02:29:09;14.68;;;6.70;;
28629;SDS011;15817;42.130;24.762;2023-10-31T02:31:38;13.15;;;6.07;;
28629;SDS011;15817;42.130;24.762;2023-10-31T02:34:03;12.90;;;6.65;;
28629;SDS011;15817;42.130;24.762;2023-10-31T02:36:30;15.27;;;6.90;;
28629;SDS011;15817;42.130;24.762;2023-10-31T02:39:02;11.80;;;5.60;;
28629;SDS011;15817;42.130;24.762;2023-10-31T02:41:28;12.05;;;5.82;;
28629;SDS011;15817;42.130;24.762;2023-10-31T02:43:57;13.48;;;6.30;;
28629;SDS011;15817;42.130;24.762;2023-10-31T02:46:25;14.02;;;5.72;;
28629;SDS011;15817;42.130;24.762;2023-10-31T02:49:04;13.65;;;5.45;;
28629;SDS011;15817;42.130;24.762;2023-10-31T02:51:30;14.23;;;5.50;;
28629;SDS011;15817;42.130;24.762;2023-10-31T02:53:58;13.80;;;5.40;;
28629;SDS011;15817;42.130;24.762;2023-10-31T02:56:38;10.88;;;5.55;;
28629;SDS011;15817;42.130;24.762;2023-10-31T02:59:10;14.05;;;5.82;;
28629;SDS011;15817;42.130;24.762;2023-10-31T03:01:36;17.98;;;5.60;;
28629;SDS011;15817;42.130;24.762;2023-10-31T03:04:05;16.52;;;5.45;;
28629;SDS011;15817;42.130;24.762;2023-10-31T03:06:37;12.18;;;6.13;;
28629;SDS011;15817;42.130;24.762;2023-10-31T03:09:06;13.30;;;5.03;;
28629;SDS011;15817;42.130;24.762;2023-10-31T03:11:35;15.88;;;6.22;;
28629;SDS011;15817;42.130;24.762;2023-10-31T03:14:04;15.82;;;6.82;;
28629;SDS011;15817;42.130;24.762;2023-10-31T03:16:39;20.38;;;6.20;;
28629;SDS011;15817;42.130;24.762;2023-10-31T03:19:17;13.45;;;6.47;;
28629;SDS011;15817;42.130;24.762;2023-10-31T03:21:47;18.13;;;5.93;;
28629;SDS011;15817;42.130;24.762;2023-10-31T03:24:19;18.23;;;5.65;;
28629;SDS011;15817;42.130;24.762;2023-10-31T03:26:58;10.48;;;5.80;;
28629;SDS011;15817;42.130;24.762;2023-10-31T03:29:27;16.42;;;6.65;;
28629;SDS011;15817;42.130;24.762;2023-10-31T03:31:53;11.27;;;5.93;;
28629;SDS011;15817;42.130;24.762;2023-10-31T03:34:19;16.27;;;5.85;;
28629;SDS011;15817;42.130;24.762;2023-10-31T03:36:45;14.45;;;5.85;;
28629;SDS011;15817;42.130;24.762;2023-10-31T03:39:15;14.13;;;5.93;;
28629;SDS011;15817;42.130;24.762;2023-10-31T03:41:48;11.55;;;5.47;;
28629;SDS011;15817;42.130;24.762;2023-10-31T03:44:15;8.65;;;5.25;;
28629;SDS011;15817;42.130;24.762;2023-10-31T03:46:48;11.82;;;5.57;;
28629;SDS011;15817;42.130;24.762;2023-10-31T03:49:27;12.00;;;5.75;;
28629;SDS011;15817;42.130;24.762;2023-10-31T03:51:53;13.02;;;5.85;;
28629;SDS011;15817;42.130;24.762;2023-10-31T03:54:28;12.68;;;5.70;;
28629;SDS011;15817;42.130;24.762;2023-10-31T03:57:07;8.25;;;6.00;;
28629;SDS011;15817;42.130;24.762;2023-10-31T03:59:37;15.07;;;6.10;;
28629;SDS011;15817;42.130;24.762;2023-10-31T04:02:05;16.20;;;6.50;;
28629;SDS011;15817;42.130;24.762;2023-10-31T04:04:33;11.70;;;6.20;;
28629;SDS011;15817;42.130;24.762;2023-10-31T04:07:15;16.02;;;6.97;;
28629;SDS011;15817;42.130;24.762;2023-10-31T04:09:48;14.85;;;6.53;;
28629;SDS011;15817;42.130;24.762;2023-10-31T04:13:04;19.20;;;6.25;;
28629;SDS011;15817;42.130;24.762;2023-10-31T04:15:25;12.55;;;6.18;;
28629;SDS011;15817;42.130;24.762;2023-10-31T04:17:56;12.70;;;5.88;;
28629;SDS011;15817;42.130;24.762;2023-10-31T04:20:25;10.55;;;5.93;;
28629;SDS011;15817;42.130;24.762;2023-10-31T04:23:09;11.48;;;5.80;;
28629;SDS011;15817;42.130;24.762;2023-10-31T04:29:35;15.30;;;6.47;;
28629;SDS011;15817;42.130;24.762;2023-10-31T04:32:01;14.15;;;7.00;;
28629;SDS011;15817;42.130;24.762;2023-10-31T04:34:48;14.57;;;6.75;;
28629;SDS011;15817;42.130;24.762;2023-10-31T04:37:20;16.25;;;6.28;;
28629;SDS011;15817;42.130;24.762;2023-10-31T04:39:48;14.35;;;6.15;;
28629;SDS011;15817;42.130;24.762;2023-10-31T04:42:14;14.50;;;6.30;;
28629;SDS011;15817;42.130;24.762;2023-10-31T04:44:48;12.32;;;6.05;;
28629;SDS011;15817;42.130;24.762;2023-10-31T04:47:25;15.07;;;6.57;;
28629;SDS011;15817;42.130;24.762;2023-10-31T04:49:58;19.90;;;6.68;;
28629;SDS011;15817;42.130;24.762;2023-10-31T04:52:27;13.70;;;6.22;;
28629;SDS011;15817;42.130;24.762;2023-10-31T04:54:55;16.70;;;6.95;;
28629;SDS011;15817;42.130;24.762;2023-10-31T04:57:32;15.48;;;6.90;;
28629;SDS011;15817;42.130;24.762;2023-10-31T05:00:00;16.85;;;7.13;;
28629;SDS011;15817;42.130;24.762;2023-10-31T05:02:26;16.88;;;7.20;;
28629;SDS011;15817;42.130;24.762;2023-10-31T05:04:52;15.93;;;7.55;;
28629;SDS011;15817;42.130;24.762;2023-10-31T05:07:23;15.27;;;7.50;;
28629;SDS011;15817;42.130;24.762;2023-10-31T05:09:51;15.25;;;7.10;;
28629;SDS011;15817;42.130;24.762;2023-10-31T05:12:32;23.35;;;7.53;;
28629;SDS011;15817;42.130;24.762;2023-10-31T05:15:01;19.63;;;7.43;;
28629;SDS011;15817;42.130;24.762;2023-10-31T05:17:38;17.40;;;8.10;;
28629;SDS011;15817;42.130;24.762;2023-10-31T05:20:04;23.20;;;8.40;;
28629;SDS011;15817;42.130;24.762;2023-10-31T05:22:33;28.13;;;8.02;;
28629;SDS011;15817;42.130;24.762;2023-10-31T05:25:05;12.73;;;6.53;;
28629;SDS011;15817;42.130;24.762;2023-10-31T05:27:31;21.77;;;7.57;;
28629;SDS011;15817;42.130;24.762;2023-10-31T05:29:59;18.70;;;6.85;;
28629;SDS011;15817;42.130;24.762;2023-10-31T05:32:31;26.60;;;7.90;;
28629;SDS011;15817;42.130;24.762;2023-10-31T05:34:57;22.73;;;7.72;;
28629;SDS011;15817;42.130;24.762;2023-10-31T05:37:25;21.10;;;8.02;;
28629;SDS011;15817;42.130;24.762;2023-10-31T05:40:08;30.40;;;9.05;;
28629;SDS011;15817;42.130;24.762;2023-10-31T05:43:00;22.50;;;8.13;;
28629;SDS011;15817;42.130;24.762;2023-10-31T05:45:35;17.17;;;7.03;;
28629;SDS011;15817;42.130;24.762;2023-10-31T05:48:03;24.90;;;7.13;;
28629;SDS011;15817;42.130;24.762;2023-10-31T05:50:46;26.13;;;8.70;;
28629;SDS011;15817;42.130;24.762;2023-10-31T05:53:29;25.25;;;7.88;;
28629;SDS011;15817;42.130;24.762;2023-10-31T05:56:14;18.52;;;7.65;;
28629;SDS011;15817;42.130;24.762;2023-10-31T05:58:43;22.77;;;7.97;;
28629;SDS011;15817;42.130;24.762;2023-10-31T06:01:27;15.48;;;7.30;;
28629;SDS011;15817;42.130;24.762;2023-10-31T06:03:55;15.77;;;7.38;;
28629;SDS011;15817;42.130;24.762;2023-10-31T06:06:21;15.13;;;7.15;;
28629;SDS011;15817;42.130;24.762;2023-10-31T06:08:47;18.13;;;7.25;;
28629;SDS011;15817;42.130;24.762;2023-10-31T06:11:13;17.85;;;7.30;;
28629;SDS011;15817;42.130;24.762;2023-10-31T06:13:50;22.67;;;7.70;;
28629;SDS011;15817;42.130;24.762;2023-10-31T06:16:41;16.85;;;6.75;;
28629;SDS011;15817;42.130;24.762;2023-10-31T06:19:50;15.80;;;6.95;;
28629;SDS011;15817;42.130;24.762;2023-10-31T06:22:25;17.73;;;7.35;;
28629;SDS011;15817;42.130;24.762;2023-10-31T06:25:42;13.85;;;7.28;;
28629;SDS011;15817;42.130;24.762;2023-10-31T06:28:16;15.45;;;6.55;;
28629;SDS011;15817;42.130;24.762;2023-10-31T06:30:46;13.15;;;6.50;;
28629;SDS011;15817;42.130;24.762;2023-10-31T06:33:37;24.23;;;7.68;;
28629;SDS011;15817;42.130;24.762;2023-10-31T06:36:13;22.65;;;7.43;;
28629;SDS011;15817;42.130;24.762;2023-10-31T06:38:54;12.05;;;7.05;;
28629;SDS011;15817;42.130;24.762;2023-10-31T06:41:57;14.73;;;7.63;;
28629;SDS011;15817;42.130;24.762;2023-10-31T06:45:33;11.48;;;6.78;;
28629;SDS011;15817;42.130;24.762;2023-10-31T06:48:03;35.33;;;8.30;;
28629;SDS011;15817;42.130;24.762;2023-10-31T06:51:13;17.75;;;7.57;;
28629;SDS011;15817;42.130;24.762;2023-10-31T06:57:39;31.77;;;8.10;;
28629;SDS011;15817;42.130;24.762;2023-10-31T07:00:46;33.63;;;9.65;;
28629;SDS011;15817;42.130;24.762;2023-10-31T07:03:29;28.08;;;7.80;;
28629;SDS011;15817;42.130;24.762;2023-10-31T07:06:21;14.25;;;7.30;;
28629;SDS011;15817;42.130;24.762;2023-10-31T07:09:33;15.60;;;7.88;;
28629;SDS011;15817;42.130;24.762;2023-10-31T07:12:23;27.02;;;8.38;;
28629;SDS011;15817;42.130;24.762;2023-10-31T07:15:00;23.98;;;8.63;;
28629;SDS011;15817;42.130;24.762;2023-10-31T07:17:41;21.00;;;7.85;;
28629;SDS011;15817;42.130;24.762;2023-10-31T07:20:34;15.38;;;8.18;;
28629;SDS011;15817;42.130;24.762;2023-10-31T07:23:00;21.38;;;8.52;;
28629;SDS011;15817;42.130;24.762;2023-10-31T07:25:43;33.45;;;7.70;;
28629;SDS011;15817;42.130;24.762;2023-10-31T07:28:26;21.50;;;6.90;;
28629;SDS011;15817;42.130;24.762;2023-10-31T07:31:10;12.82;;;7.32;;
28629;SDS011;15817;42.130;24.762;2023-10-31T07:33:43;16.15;;;6.70;;
28629;SDS011;15817;42.130;24.762;2023-10-31T07:39:34;22.55;;;7.00;;
28629;SDS011;15817;42.130;24.762;2023-10-31T07:42:00;26.85;;;8.73;;
28629;SDS011;15817;42.130;24.762;2023-10-31T07:44:32;16.30;;;7.15;;
28629;SDS011;15817;42.130;24.762;2023-10-31T07:47:03;14.57;;;7.05;;
28629;SDS011;15817;42.130;24.762;2023-10-31T07:50:10;20.35;;;7.72;;
28629;SDS011;15817;42.130;24.762;2023-10-31T07:52:36;23.55;;;7.40;;
28629;SDS011;15817;42.130;24.762;2023-10-31T07:55:02;12.85;;;6.30;;
28629;SDS011;15817;42.130;24.762;2023-10-31T07:57:28;19.67;;;7.43;;
28629;SDS011;15817;42.130;24.762;2023-10-31T08:00:00;22.45;;;7.47;;
28629;SDS011;15817;42.130;24.762;2023-10-31T08:02:39;15.68;;;7.75;;
28629;SDS011;15817;42.130;24.762;2023-10-31T08:05:10;21.55;;;6.82;;
28629;SDS011;15817;42.130;24.762;2023-10-31T08:07:40;13.00;;;6.22;;
28629;SDS011;15817;42.130;24.762;2023-10-31T08:10:09;12.68;;;6.38;;
28629;SDS011;15817;42.130;24.762;2023-10-31T08:12:36;17.13;;;6.72;;
28629;SDS011;15817;42.130;24.762;2023-10-31T08:15:02;13.07;;;6.18;;
28629;SDS011;15817;42.130;24.762;2023-10-31T08:17:41;10.63;;;5.93;;
28629;SDS011;15817;42.130;24.762;2023-10-31T08:20:28;16.23;;;6.28;;
28629;SDS011;15817;42.130;24.762;2023-10-31T08:23:10;16.65;;;6.88;;
28629;SDS011;15817;42.130;24.762;2023-10-31T08:25:49;12.65;;;6.28;;
28629;SDS011;15817;42.130;24.762;2023-10-31T08:28:25;8.45;;;5.65;;
28629;SDS011;15817;42.130;24.762;2023-10-31T08:30:59;29.77;;;7.07;;
28629;SDS011;15817;42.130;24.762;2023-10-31T08:33:25;16.65;;;6.40;;
28629;SDS011;15817;42.130;24.762;2023-10-31T08:35:54;12.75;;;6.15;;
28629;SDS011;15817;42.130;24.762;2023-10-31T08:38:20;9.18;;;5.65;;
28629;SDS011;15817;42.130;24.762;2023-10-31T08:40:48;17.65;;;5.35;;
28629;SDS011;15817;42.130;24.762;2023-10-31T08:43:17;13.32;;;6.80;;
28629;SDS011;15817;42.130;24.762;2023-10-31T08:45:48;11.98;;;6.68;;
28629;SDS011;15817;42.130;24.762;2023-10-31T08:48:17;17.17;;;5.97;;
28629;SDS011;15817;42.130;24.762;2023-10-31T08:50:55;12.18;;;6.35;;
28629;SDS011;15817;42.130;24.762;2023-10-31T08:53:38;12.25;;;5.90;;
28629;SDS011;15817;42.130;24.762;2023-10-31T08:56:04;17.75;;;6.40;;
28629;SDS011;15817;42.130;24.762;2023-10-31T08:58:48;19.98;;;5.80;;
28629;SDS011;15817;42.130;24.762;2023-10-31T09:01:20;12.88;;;5.78;;
28629;SDS011;15817;42.130;24.762;2023-10-31T09:03:55;16.20;;;6.15;;
28629;SDS011;15817;42.130;24.762;2023-10-31T09:06:47;16.95;;;5.70;;
28629;SDS011;15817;42.130;24.762;2023-10-31T09:09:22;11.80;;;5.97;;
28629;SDS011;15817;42.130;24.762;2023-10-31T09:12:59;12.50;;;5.50;;
28629;SDS011;15817;42.130;24.762;2023-10-31T09:15:49;12.60;;;5.88;;
28629;SDS011;15817;42.130;24.762;2023-10-31T09:18:18;13.68;;;5.85;;
28629;SDS011;15817;42.130;24.762;2023-10-31T09:20:56;12.57;;;5.55;;
28629;SDS011;15817;42.130;24.762;2023-10-31T09:24:19;10.63;;;4.65;;
28629;SDS011;15817;42.130;24.762;2023-10-31T09:27:08;18.05;;;5.55;;
28629;SDS011;15817;42.130;24.762;2023-10-31T09:33:16;24.50;;;6.28;;
28629;SDS011;15817;42.130;24.762;2023-10-31T09:36:04;12.65;;;4.90;;
28629;SDS011;15817;42.130;24.762;2023-10-31T09:38:46;11.20;;;5.05;;
28629;SDS011;15817;42.130;24.762;2023-10-31T09:48:03;12.18;;;5.15;;
28629;SDS011;15817;42.130;24.762;2023-10-31T09:51:04;11.10;;;4.05;;
28629;SDS011;15817;42.130;24.762;2023-10-31T09:53:40;11.73;;;4.47;;
28629;SDS011;15817;42.130;24.762;2023-10-31T09:56:25;13.80;;;4.07;;
28629;SDS011;15817;42.130;24.762;2023-10-31T09:59:01;7.22;;;3.72;;
28629;SDS011;15817;42.130;24.762;2023-10-31T10:02:08;8.38;;;4.05;;
28629;SDS011;15817;42.130;24.762;2023-10-31T10:04:42;14.70;;;4.28;;
28629;SDS011;15817;42.130;24.762;2023-10-31T10:07:41;7.53;;;3.80;;
28629;SDS011;15817;42.130;24.762;2023-10-31T10:13:20;8.90;;;3.88;;
28629;SDS011;15817;42.130;24.762;2023-10-31T10:19:31;12.57;;;3.97;;
28629;SDS011;15817;42.130;24.762;2023-10-31T10:22:25;11.82;;;4.20;;
28629;SDS011;15817;42.130;24.762;2023-10-31T10:25:06;10.55;;;4.05;;
28629;SDS011;15817;42.130;24.762;2023-10-31T10:28:30;11.18;;;3.78;;
28629;SDS011;15817;42.130;24.762;2023-10-31T10:39:08;14.43;;;3.80;;
28629;SDS011;15817;42.130;24.762;2023-10-31T10:42:16;9.85;;;3.80;;
28629;SDS011;15817;42.130;24.762;2023-10-31T10:45:49;16.95;;;3.60;;
28629;SDS011;15817;42.130;24.762;2023-10-31T10:49:11;10.35;;;3.95;;
28629;SDS011;15817;42.130;24.762;2023-10-31T10:56:35;8.63;;;3.53;;
28629;SDS011;15817;42.130;24.762;2023-10-31T10:59:41;7.85;;;3.38;;
28629;SDS011;15817;42.130;24.762;2023-10-31T11:02:38;7.32;;;3.55;;
28629;SDS011;15817;42.130;24.762;2023-10-31T11:05:31;8.38;;;3.50;;
28629;SDS011;15817;42.130;24.762;2023-10-31T11:08:20;8.82;;;3.42;;
28629;SDS011;15817;42.130;24.762;2023-10-31T11:11:05;12.35;;;3.65;;
28629;SDS011;15817;42.130;24.762;2023-10-31T11:13:37;9.38;;;3.45;;
28629;SDS011;15817;42.130;24.762;2023-10-31T11:20:20;12.48;;;3.97;;
28629;SDS011;15817;42.130;24.762;2023-10-31T11:29:54;11.55;;;3.92;;
28629;SDS011;15817;42.130;24.762;2023-10-31T11:36:21;6.82;;;3.45;;
28629;SDS011;15817;42.130;24.762;2023-10-31T11:39:14;8.63;;;3.67;;
28629;SDS011;15817;42.130;24.762;2023-10-31T11:42:08;8.05;;;3.35;;
28629;SDS011;15817;42.130;24.762;2023-10-31T11:45:02;8.98;;;2.97;;
28629;SDS011;15817;42.130;24.762;2023-10-31T11:47:48;10.43;;;3.47;;
28629;SDS011;15817;42.130;24.762;2023-10-31T11:50:37;7.22;;;3.15;;
28629;SDS011;15817;42.130;24.762;2023-10-31T11:53:12;10.73;;;3.10;;
28629;SDS011;15817;42.130;24.762;2023-10-31T11:56:08;5.40;;;3.17;;
28629;SDS011;15817;42.130;24.762;2023-10-31T11:59:05;9.60;;;3.38;;
28629;SDS011;15817;42.130;24.762;2023-10-31T12:02:20;7.60;;;3.75;;
28629;SDS011;15817;42.130;24.762;2023-10-31T12:05:12;6.05;;;3.40;;
28629;SDS011;15817;42.130;24.762;2023-10-31T12:08:27;11.43;;;4.15;;
28629;SDS011;15817;42.130;24.762;2023-10-31T12:11:15;8.32;;;3.95;;
28629;SDS011;15817;42.130;24.762;2023-10-31T12:13:53;8.70;;;4.10;;
28629;SDS011;15817;42.130;24.762;2023-10-31T12:16:43;9.55;;;4.00;;
28629;SDS011;15817;42.130;24.762;2023-10-31T12:19:23;11.90;;;4.68;;
28629;SDS011;15817;42.130;24.762;2023-10-31T12:22:15;8.55;;;4.00;;
28629;SDS011;15817;42.130;24.762;2023-10-31T12:25:07;12.98;;;4.03;;
28629;SDS011;15817;42.130;24.762;2023-10-31T12:27:52;11.70;;;4.53;;
28629;SDS011;15817;42.130;24.762;2023-10-31T12:30:50;7.85;;;3.80;;
28629;SDS011;15817;42.130;24.762;2023-10-31T12:34:32;11.25;;;3.78;;
28629;SDS011;15817;42.130;24.762;2023-10-31T12:37:05;6.97;;;4.15;;
28629;SDS011;15817;42.130;24.762;2023-10-31T12:39:39;9.05;;;3.70;;
28629;SDS011;15817;42.130;24.762;2023-10-31T12:42:13;11.02;;;4.40;;
28629;SDS011;15817;42.130;24.762;2023-10-31T12:44:48;10.93;;;4.25;;
28629;SDS011;15817;42.130;24.762;2023-10-31T12:47:25;16.60;;;4.13;;
28629;SDS011;15817;42.130;24.762;2023-10-31T12:52:55;12.60;;;3.70;;
28629;SDS011;15817;42.130;24.762;2023-10-31T12:55:46;12.15;;;3.80;;
28629;SDS011;15817;42.130;24.762;2023-10-31T12:58:19;16.83;;;3.85;;
28629;SDS011;15817;42.130;24.762;2023-10-31T13:00:47;9.02;;;3.25;;
28629;SDS011;15817;42.130;24.762;2023-10-31T13:47:20;10.95;;;4.60;;
28629;SDS011;15817;42.130;24.762;2023-10-31T13:54:06;16.25;;;5.25;;
28629;SDS011;15817;42.130;24.762;2023-10-31T13:57:15;13.25;;;4.20;;
28629;SDS011;15817;42.130;24.762;2023-10-31T14:00:04;11.38;;;3.88;;
28629;SDS011;15817;42.130;24.762;2023-10-31T14:03:14;16.98;;;4.65;;
28629;SDS011;15817;42.130;24.762;2023-10-31T14:06:30;15.77;;;5.22;;
28629;SDS011;15817;42.130;24.762;2023-10-31T14:09:09;11.07;;;4.80;;
28629;SDS011;15817;42.130;24.762;2023-10-31T14:11:52;8.32;;;4.57;;
28629;SDS011;15817;42.130;24.762;2023-10-31T14:14:31;10.70;;;4.18;;
28629;SDS011;15817;42.130;24.762;2023-10-31T14:20:21;12.40;;;3.38;;
28629;SDS011;15817;42.130;24.762;2023-10-31T14:26:35;7.68;;;4.55;;
28629;SDS011;15817;42.130;24.762;2023-10-31T14:29:28;14.63;;;4.88;;
28629;SDS011;15817;42.130;24.762;2023-10-31T14:33:07;12.15;;;4.85;;
28629;SDS011;15817;42.130;24.762;2023-10-31T14:35:44;9.45;;;4.35;;
28629;SDS011;15817;42.130;24.762;2023-10-31T14:38:38;7.47;;;4.53;;
28629;SDS011;15817;42.130;24.762;2023-10-31T14:41:42;8.93;;;4.93;;
28629;SDS011;15817;42.130;24.762;2023-10-31T14:58:54;9.05;;;4.82;;
28629;SDS011;15817;42.130;24.762;2023-10-31T15:04:54;9.55;;;4.00;;
28629;SDS011;15817;42.130;24.762;2023-10-31T15:07:41;12.15;;;4.43;;
28629;SDS011;15817;42.130;24.762;2023-10-31T15:10:30;8.13;;;4.30;;
28629;SDS011;15817;42.130;24.762;2023-10-31T15:13:12;11.55;;;4.80;;
28629;SDS011;15817;42.130;24.762;2023-10-31T15:19:48;16.95;;;4.95;;
28629;SDS011;15817;42.130;24.762;2023-10-31T15:30:44;18.70;;;5.38;;
28629;SDS011;15817;42.130;24.762;2023-10-31T15:33:23;20.55;;;5.50;;
28629;SDS011;15817;42.130;24.762;2023-10-31T15:36:20;14.63;;;5.47;;
28629;SDS011;15817;42.130;24.762;2023-10-31T15:39:07;13.52;;;5.70;;
28629;SDS011;15817;42.130;24.762;2023-10-31T15:49:59;19.45;;;5.82;;
28629;SDS011;15817;42.130;24.762;2023-10-31T15:52:27;16.08;;;6.38;;
28629;SDS011;15817;42.130;24.762;2023-10-31T15:55:04;16.70;;;5.97;;
28629;SDS011;15817;42.130;24.762;2023-10-31T15:57:49;14.00;;;7.43;;
28629;SDS011;15817;42.130;24.762;2023-10-31T16:00:38;20.45;;;6.47;;
28629;SDS011;15817;42.130;24.762;2023-10-31T16:03:26;23.38;;;6.75;;
28629;SDS011;15817;42.130;24.762;2023-10-31T16:06:30;19.63;;;6.15;;
28629;SDS011;15817;42.130;24.762;2023-10-31T16:12:05;20.92;;;6.53;;
28629;SDS011;15817;42.130;24.762;2023-10-31T16:14:59;23.45;;;7.20;;
28629;SDS011;15817;42.130;24.762;2023-10-31T16:17:49;16.15;;;6.88;;
28629;SDS011;15817;42.130;24.762;2023-10-31T16:20:37;21.75;;;6.82;;
28629;SDS011;15817;42.130;24.762;2023-10-31T16:24:35;21.17;;;7.03;;
28629;SDS011;15817;42.130;24.762;2023-10-31T16:31:35;19.08;;;7.05;;
28629;SDS011;15817;42.130;24.762;2023-10-31T16:34:16;17.98;;;6.95;;
28629;SDS011;15817;42.130;24.762;2023-10-31T16:37:10;24.67;;;7.45;;
28629;SDS011;15817;42.130;24.762;2023-10-31T16:51:20;21.27;;;7.70;;
28629;SDS011;15817;42.130;24.762;2023-10-31T17:05:42;26.35;;;9.02;;
28629;SDS011;15817;42.130;24.762;2023-10-31T17:13:20;30.85;;;10.68;;
28629;SDS011;15817;42.130;24.762;2023-10-31T17:20:57;34.05;;;11.00;;
28629;SDS011;15817;42.130;24.762;2023-10-31T17:23:47;21.08;;;9.60;;
28629;SDS011;15817;42.130;24.762;2023-10-31T17:34:24;28.55;;;8.93;;
28629;SDS011;15817;42.130;24.762;2023-10-31T17:37:13;26.02;;;8.93;;
28629;SDS011;15817;42.130;24.762;2023-10-31T17:40:12;29.75;;;11.35;;
28629;SDS011;15817;42.130;24.762;2023-10-31T17:46:52;23.70;;;10.60;;
28629;SDS011;15817;42.130;24.762;2023-10-31T17:50:51;25.40;;;10.10;;
28629;SDS011;15817;42.130;24.762;2023-10-31T17:57:02;29.63;;;9.80;;
28629;SDS011;15817;42.130;24.762;2023-10-31T18:00:22;22.50;;;7.57;;
28629;SDS011;15817;42.130;24.762;2023-10-31T18:03:19;21.52;;;6.85;;
28629;SDS011;15817;42.130;24.762;2023-10-31T18:06:09;20.67;;;7.78;;
28629;SDS011;15817;42.130;24.762;2023-10-31T18:08:37;19.48;;;7.05;;
28629;SDS011;15817;42.130;24.762;2023-10-31T18:11:06;19.15;;;7.30;;
28629;SDS011;15817;42.130;24.762;2023-10-31T18:16:27;31.25;;;7.97;;
28629;SDS011;15817;42.130;24.762;2023-10-31T18:19:04;19.80;;;8.63;;
28629;SDS011;15817;42.130;24.762;2023-10-31T18:21:54;21.00;;;7.88;;
28629;SDS011;15817;42.130;24.762;2023-10-31T18:24:41;33.42;;;9.70;;
28629;SDS011;15817;42.130;24.762;2023-10-31T18:30:17;21.00;;;8.77;;
28629;SDS011;15817;42.130;24.762;2023-10-31T18:32:47;22.38;;;9.10;;
28629;SDS011;15817;42.130;24.762;2023-10-31T18:35:54;18.27;;;9.38;;
28629;SDS011;15817;42.130;24.762;2023-10-31T18:38:33;25.20;;;10.48;;
28629;SDS011;15817;42.130;24.762;2023-10-31T18:41:06;28.50;;;11.60;;
28629;SDS011;15817;42.130;24.762;2023-10-31T18:43:37;29.17;;;12.43;;
28629;SDS011;15817;42.130;24.762;2023-10-31T18:46:22;38.92;;;17.50;;
28629;SDS011;15817;42.130;24.762;2023-10-31T18:48:58;24.15;;;11.80;;
28629;SDS011;15817;42.130;24.762;2023-10-31T18:51:30;26.38;;;10.85;;
28629;SDS011;15817;42.130;24.762;2023-10-31T18:54:39;21.63;;;8.90;;
28629;SDS011;15817;42.130;24.762;2023-10-31T18:57:19;19.60;;;7.88;;
28629;SDS011;15817;42.130;24.762;2023-10-31T19:00:02;17.23;;;7.80;;
28629;SDS011;15817;42.130;24.762;2023-10-31T19:02:33;22.17;;;8.50;;
28629;SDS011;15817;42.130;24.762;2023-10-31T19:05:07;26.95;;;8.90;;
28629;SDS011;15817;42.130;24.762;2023-10-31T19:10:22;17.38;;;7.57;;
28629;SDS011;15817;42.130;24.762;2023-10-31T19:13:02;14.95;;;7.15;;
28629;SDS011;15817;42.130;24.762;2023-10-31T19:15:47;23.25;;;7.72;;
28629;SDS011;15817;42.130;24.762;2023-10-31T19:18:25;23.75;;;8.02;;
28629;SDS011;15817;42.130;24.762;2023-10-31T19:27:30;21.27;;;7.95;;
28629;SDS011;15817;42.130;24.762;2023-10-31T19:30:04;22.60;;;7.72;;